sensor_id;sensor_type;location;lat;lon;timestamp;temperature;humidity
70336;SHT31;57756;47.408;18.940;2024-02-26T00:00:53;9.43;99.99
70336;SHT31;57756;47.408;18.940;2024-02-26T00:03:25;9.45;99.99
70336;SHT31;57756;47.408;18.940;2024-02-26T00:05:56;9.45;99.99
70336;SHT31;57756;47.408;18.940;2024-02-26T00:08:28;9.42;99.99
70336;SHT31;57756;47.408;18.940;2024-02-26T00:11:12;9.39;99.99
70336;SHT31;57756;47.408;18.940;2024-02-26T00:13:44;9.38;99.99
70336;SHT31;57756;47.408;18.940;2024-02-26T00:16:15;9.40;99.99
70336;SHT31;57756;47.408;18.940;2024-02-26T00:18:47;9.39;99.99
70336;SHT31;57756;47.408;18.940;2024-02-26T00:21:21;9.36;99.99
70336;SHT31;57756;47.408;18.940;2024-02-26T00:23:54;9.35;99.99
70336;SHT31;57756;47.408;18.940;2024-02-26T00:26:25;9.36;99.99
70336;SHT31;57756;47.408;18.940;2024-02-26T00:28:56;9.34;99.99
70336;SHT31;57756;47.408;18.940;2024-02-26T00:31:27;9.35;99.99
70336;SHT31;57756;47.408;18.940;2024-02-26T00:33:59;9.34;99.99
70336;SHT31;57756;47.408;18.940;2024-02-26T00:36:32;9.34;99.99
70336;SHT31;57756;47.408;18.940;2024-02-26T00:39:04;9.34;99.99
70336;SHT31;57756;47.408;18.940;2024-02-26T00:41:41;9.34;99.99
70336;SHT31;57756;47.408;18.940;2024-02-26T00:44:12;9.34;99.99
70336;SHT31;57756;47.408;18.940;2024-02-26T00:46:44;9.34;99.99
70336;SHT31;57756;47.408;18.940;2024-02-26T00:49:15;9.35;99.99
70336;SHT31;57756;47.408;18.940;2024-02-26T00:51:46;9.32;99.99
70336;SHT31;57756;47.408;18.940;2024-02-26T00:54:17;9.34;99.99
70336;SHT31;57756;47.408;18.940;2024-02-26T00:56:49;9.34;99.99
70336;SHT31;57756;47.408;18.940;2024-02-26T00:59:22;9.31;99.99
70336;SHT31;57756;47.408;18.940;2024-02-26T01:01:54;9.34;99.99
70336;SHT31;57756;47.408;18.940;2024-02-26T01:04:27;9.28;99.99
70336;SHT31;57756;47.408;18.940;2024-02-26T01:06:59;9.31;99.99
70336;SHT31;57756;47.408;18.940;2024-02-26T01:09:30;9.29;99.99
70336;SHT31;57756;47.408;18.940;2024-02-26T01:12:01;9.29;99.99
70336;SHT31;57756;47.408;18.940;2024-02-26T01:14:34;9.28;99.99
70336;SHT31;57756;47.408;18.940;2024-02-26T01:17:08;9.25;99.99
70336;SHT31;57756;47.408;18.940;2024-02-26T01:19:41;9.28;99.99
70336;SHT31;57756;47.408;18.940;2024-02-26T01:22:15;9.26;99.99
70336;SHT31;57756;47.408;18.940;2024-02-26T01:24:50;9.21;99.99
70336;SHT31;57756;47.408;18.940;2024-02-26T01:27:23;9.21;99.99
70336;SHT31;57756;47.408;18.940;2024-02-26T01:29:57;9.18;99.99
70336;SHT31;57756;47.408;18.940;2024-02-26T01:32:28;9.17;99.99
70336;SHT31;57756;47.408;18.940;2024-02-26T01:34:59;9.22;99.99
70336;SHT31;57756;47.408;18.940;2024-02-26T01:37:31;9.21;99.99
70336;SHT31;57756;47.408;18.940;2024-02-26T01:40:02;9.19;99.99
70336;SHT31;57756;47.408;18.940;2024-02-26T01:42:34;9.18;99.99
70336;SHT31;57756;47.408;18.940;2024-02-26T01:45:07;9.15;99.99
70336;SHT31;57756;47.408;18.940;2024-02-26T01:47:49;9.15;99.99
70336;SHT31;57756;47.408;18.940;2024-02-26T01:50:28;9.14;99.99
70336;SHT31;57756;47.408;18.940;2024-02-26T01:53:01;9.12;99.99
70336;SHT31;57756;47.408;18.940;2024-02-26T01:55:32;9.11;99.99
70336;SHT31;57756;47.408;18.940;2024-02-26T01:58:03;9.14;99.99
70336;SHT31;57756;47.408;18.940;2024-02-26T02:00:39;9.08;99.99
70336;SHT31;57756;47.408;18.940;2024-02-26T02:03:11;9.08;99.99
70336;SHT31;57756;47.408;18.940;2024-02-26T02:05:44;9.07;99.99
70336;SHT31;57756;47.408;18.940;2024-02-26T02:08:15;9.03;99.99
70336;SHT31;57756;47.408;18.940;2024-02-26T02:10:47;9.04;99.99
70336;SHT31;57756;47.408;18.940;2024-02-26T02:13:20;9.04;99.99
70336;SHT31;57756;47.408;18.940;2024-02-26T02:15:52;9.03;99.99
70336;SHT31;57756;47.408;18.940;2024-02-26T02:18:24;9.04;99.99
70336;SHT31;57756;47.408;18.940;2024-02-26T02:20:55;9.00;99.99
70336;SHT31;57756;47.408;18.940;2024-02-26T02:23:28;9.03;99.99
70336;SHT31;57756;47.408;18.940;2024-02-26T02:25:59;8.98;99.99
70336;SHT31;57756;47.408;18.940;2024-02-26T02:28:30;8.98;99.99
70336;SHT31;57756;47.408;18.940;2024-02-26T02:31:02;8.98;99.99
70336;SHT31;57756;47.408;18.940;2024-02-26T02:33:34;8.92;99.99
70336;SHT31;57756;47.408;18.940;2024-02-26T02:36:06;8.94;99.99
70336;SHT31;57756;47.408;18.940;2024-02-26T02:38:50;8.90;99.99
70336;SHT31;57756;47.408;18.940;2024-02-26T02:41:24;8.88;99.99
70336;SHT31;57756;47.408;18.940;2024-02-26T02:43:58;8.90;99.99
70336;SHT31;57756;47.408;18.940;2024-02-26T02:46:31;8.88;99.99
70336;SHT31;57756;47.408;18.940;2024-02-26T02:49:08;8.87;99.99
70336;SHT31;57756;47.408;18.940;2024-02-26T02:51:44;8.87;99.99
70336;SHT31;57756;47.408;18.940;2024-02-26T02:54:17;8.85;99.99
70336;SHT31;57756;47.408;18.940;2024-02-26T02:56:51;8.85;99.99
70336;SHT31;57756;47.408;18.940;2024-02-26T02:59:25;8.84;99.99
70336;SHT31;57756;47.408;18.940;2024-02-26T03:01:57;8.80;99.99
70336;SHT31;57756;47.408;18.940;2024-02-26T03:04:30;8.80;99.99
70336;SHT31;57756;47.408;18.940;2024-02-26T03:07:03;8.78;99.99
70336;SHT31;57756;47.408;18.940;2024-02-26T03:09:36;8.76;99.99
70336;SHT31;57756;47.408;18.940;2024-02-26T03:12:09;8.80;99.99
70336;SHT31;57756;47.408;18.940;2024-02-26T03:14:42;8.78;99.99
70336;SHT31;57756;47.408;18.940;2024-02-26T03:17:13;8.78;99.99
70336;SHT31;57756;47.408;18.940;2024-02-26T03:19:45;8.77;99.99
70336;SHT31;57756;47.408;18.940;2024-02-26T03:22:23;8.78;99.99
70336;SHT31;57756;47.408;18.940;2024-02-26T03:24:54;8.77;99.99
70336;SHT31;57756;47.408;18.940;2024-02-26T03:27:25;8.77;99.99
70336;SHT31;57756;47.408;18.940;2024-02-26T03:29:58;8.76;99.99
70336;SHT31;57756;47.408;18.940;2024-02-26T03:32:31;8.74;99.99
70336;SHT31;57756;47.408;18.940;2024-02-26T03:35:02;8.69;99.99
70336;SHT31;57756;47.408;18.940;2024-02-26T03:37:34;8.74;99.99
70336;SHT31;57756;47.408;18.940;2024-02-26T03:40:05;8.74;99.99
70336;SHT31;57756;47.408;18.940;2024-02-26T03:42:39;8.74;99.99
70336;SHT31;57756;47.408;18.940;2024-02-26T03:45:10;8.76;99.99
70336;SHT31;57756;47.408;18.940;2024-02-26T03:47:43;8.73;99.99
70336;SHT31;57756;47.408;18.940;2024-02-26T03:50:16;8.73;99.99
70336;SHT31;57756;47.408;18.940;2024-02-26T03:52:47;8.67;99.99
70336;SHT31;57756;47.408;18.940;2024-02-26T03:55:18;8.66;99.99
70336;SHT31;57756;47.408;18.940;2024-02-26T03:57:55;8.67;99.99
70336;SHT31;57756;47.408;18.940;2024-02-26T04:00:26;8.66;99.99
70336;SHT31;57756;47.408;18.940;2024-02-26T04:03:00;8.66;99.99
70336;SHT31;57756;47.408;18.940;2024-02-26T04:05:31;8.63;99.99
70336;SHT31;57756;47.408;18.940;2024-02-26T04:08:04;8.66;99.99
70336;SHT31;57756;47.408;18.940;2024-02-26T04:10:39;8.64;99.99
70336;SHT31;57756;47.408;18.940;2024-02-26T04:13:12;8.61;99.99
70336;SHT31;57756;47.408;18.940;2024-02-26T04:15:43;8.57;99.99
70336;SHT31;57756;47.408;18.940;2024-02-26T04:18:16;8.56;99.99
70336;SHT31;57756;47.408;18.940;2024-02-26T04:20:47;8.54;99.99
70336;SHT31;57756;47.408;18.940;2024-02-26T04:23:21;8.50;99.99
70336;SHT31;57756;47.408;18.940;2024-02-26T04:25:55;8.45;99.99
70336;SHT31;57756;47.408;18.940;2024-02-26T04:28:28;8.48;99.99
70336;SHT31;57756;47.408;18.940;2024-02-26T04:31:02;8.45;99.99
70336;SHT31;57756;47.408;18.940;2024-02-26T04:33:35;8.42;99.99
70336;SHT31;57756;47.408;18.940;2024-02-26T04:36:06;8.40;99.99
70336;SHT31;57756;47.408;18.940;2024-02-26T04:38:47;8.35;99.99
70336;SHT31;57756;47.408;18.940;2024-02-26T04:41:18;8.35;99.99
70336;SHT31;57756;47.408;18.940;2024-02-26T04:43:51;8.31;99.99
70336;SHT31;57756;47.408;18.940;2024-02-26T04:46:25;8.31;99.99
70336;SHT31;57756;47.408;18.940;2024-02-26T04:48:57;8.28;99.99
70336;SHT31;57756;47.408;18.940;2024-02-26T04:51:30;8.26;99.99
70336;SHT31;57756;47.408;18.940;2024-02-26T04:54:04;8.28;99.99
70336;SHT31;57756;47.408;18.940;2024-02-26T04:56:37;8.26;99.99
70336;SHT31;57756;47.408;18.940;2024-02-26T04:59:08;8.31;99.99
70336;SHT31;57756;47.408;18.940;2024-02-26T05:01:42;8.25;99.99
70336;SHT31;57756;47.408;18.940;2024-02-26T05:04:13;8.29;99.99
70336;SHT31;57756;47.408;18.940;2024-02-26T05:06:44;8.35;99.99
70336;SHT31;57756;47.408;18.940;2024-02-26T05:09:15;8.35;99.99
70336;SHT31;57756;47.408;18.940;2024-02-26T05:11:49;8.35;99.99
70336;SHT31;57756;47.408;18.940;2024-02-26T05:14:22;8.39;99.99
70336;SHT31;57756;47.408;18.940;2024-02-26T05:16:55;8.35;99.99
70336;SHT31;57756;47.408;18.940;2024-02-26T05:19:28;8.38;99.99
70336;SHT31;57756;47.408;18.940;2024-02-26T05:21:59;8.42;99.99
70336;SHT31;57756;47.408;18.940;2024-02-26T05:24:32;8.46;99.99
70336;SHT31;57756;47.408;18.940;2024-02-26T05:27:05;8.45;99.99
70336;SHT31;57756;47.408;18.940;2024-02-26T05:29:36;8.45;99.99
70336;SHT31;57756;47.408;18.940;2024-02-26T05:32:08;8.53;99.99
70336;SHT31;57756;47.408;18.940;2024-02-26T05:34:39;8.54;99.99
70336;SHT31;57756;47.408;18.940;2024-02-26T05:37:12;8.54;99.99
70336;SHT31;57756;47.408;18.940;2024-02-26T05:39:46;8.50;99.99
70336;SHT31;57756;47.408;18.940;2024-02-26T05:42:17;8.56;99.99
70336;SHT31;57756;47.408;18.940;2024-02-26T05:44:48;8.61;99.99
70336;SHT31;57756;47.408;18.940;2024-02-26T05:47:19;8.61;99.99
70336;SHT31;57756;47.408;18.940;2024-02-26T05:49:52;8.63;99.99
70336;SHT31;57756;47.408;18.940;2024-02-26T05:52:27;8.63;99.99
70336;SHT31;57756;47.408;18.940;2024-02-26T05:54:56;8.66;99.99
70336;SHT31;57756;47.408;18.940;2024-02-26T05:57:24;8.67;99.99
70336;SHT31;57756;47.408;18.940;2024-02-26T05:59:53;8.64;99.99
70336;SHT31;57756;47.408;18.940;2024-02-26T06:02:20;8.66;99.99
70336;SHT31;57756;47.408;18.940;2024-02-26T06:04:51;8.66;99.99
70336;SHT31;57756;47.408;18.940;2024-02-26T06:07:22;8.67;99.99
70336;SHT31;57756;47.408;18.940;2024-02-26T06:09:53;8.67;99.99
70336;SHT31;57756;47.408;18.940;2024-02-26T06:12:19;8.70;99.99
70336;SHT31;57756;47.408;18.940;2024-02-26T06:14:46;8.71;99.99
70336;SHT31;57756;47.408;18.940;2024-02-26T06:17:19;8.73;99.99
70336;SHT31;57756;47.408;18.940;2024-02-26T06:19:53;8.78;99.99
70336;SHT31;57756;47.408;18.940;2024-02-26T06:22:26;8.78;99.99
70336;SHT31;57756;47.408;18.940;2024-02-26T06:24:57;8.78;99.99
70336;SHT31;57756;47.408;18.940;2024-02-26T06:27:25;8.78;99.99
70336;SHT31;57756;47.408;18.940;2024-02-26T06:29:58;8.83;99.99
70336;SHT31;57756;47.408;18.940;2024-02-26T06:32:30;8.81;99.99
70336;SHT31;57756;47.408;18.940;2024-02-26T06:35:01;8.87;99.99
70336;SHT31;57756;47.408;18.940;2024-02-26T06:37:37;8.91;99.99
70336;SHT31;57756;47.408;18.940;2024-02-26T06:40:09;8.97;99.99
70336;SHT31;57756;47.408;18.940;2024-02-26T06:42:40;9.00;99.99
70336;SHT31;57756;47.408;18.940;2024-02-26T06:45:12;9.03;99.99
70336;SHT31;57756;47.408;18.940;2024-02-26T06:47:43;9.07;99.99
70336;SHT31;57756;47.408;18.940;2024-02-26T06:50:15;9.10;99.99
70336;SHT31;57756;47.408;18.940;2024-02-26T06:52:46;9.14;99.99
70336;SHT31;57756;47.408;18.940;2024-02-26T06:55:18;9.18;99.99
70336;SHT31;57756;47.408;18.940;2024-02-26T06:57:49;9.32;99.99
70336;SHT31;57756;47.408;18.940;2024-02-26T07:00:20;9.35;99.99
70336;SHT31;57756;47.408;18.940;2024-02-26T07:02:51;9.40;99.99
70336;SHT31;57756;47.408;18.940;2024-02-26T07:05:22;9.45;99.99
70336;SHT31;57756;47.408;18.940;2024-02-26T07:07:52;9.55;99.99
70336;SHT31;57756;47.408;18.940;2024-02-26T07:10:26;9.59;99.99
70336;SHT31;57756;47.408;18.940;2024-02-26T07:13:00;9.69;99.99
70336;SHT31;57756;47.408;18.940;2024-02-26T07:15:32;9.89;99.99
70336;SHT31;57756;47.408;18.940;2024-02-26T07:18:03;9.95;99.99
70336;SHT31;57756;47.408;18.940;2024-02-26T07:20:36;10.03;99.99
70336;SHT31;57756;47.408;18.940;2024-02-26T07:23:07;10.20;99.99
70336;SHT31;57756;47.408;18.940;2024-02-26T07:25:38;10.41;99.99
70336;SHT31;57756;47.408;18.940;2024-02-26T07:28:09;10.55;99.99
70336;SHT31;57756;47.408;18.940;2024-02-26T07:30:41;10.65;99.99
70336;SHT31;57756;47.408;18.940;2024-02-26T07:33:13;10.75;99.99
70336;SHT31;57756;47.408;18.940;2024-02-26T07:35:44;10.73;99.99
70336;SHT31;57756;47.408;18.940;2024-02-26T07:38:15;10.76;99.99
70336;SHT31;57756;47.408;18.940;2024-02-26T07:40:47;10.73;99.99
70336;SHT31;57756;47.408;18.940;2024-02-26T07:43:20;10.75;99.99
70336;SHT31;57756;47.408;18.940;2024-02-26T07:45:51;10.79;99.99
70336;SHT31;57756;47.408;18.940;2024-02-26T07:48:22;10.87;99.99
70336;SHT31;57756;47.408;18.940;2024-02-26T07:50:54;10.92;99.99
70336;SHT31;57756;47.408;18.940;2024-02-26T07:53:26;11.10;99.99
70336;SHT31;57756;47.408;18.940;2024-02-26T07:55:59;11.20;99.99
70336;SHT31;57756;47.408;18.940;2024-02-26T07:58:34;11.34;99.99
70336;SHT31;57756;47.408;18.940;2024-02-26T08:01:05;11.35;99.99
70336;SHT31;57756;47.408;18.940;2024-02-26T08:03:37;11.35;99.99
70336;SHT31;57756;47.408;18.940;2024-02-26T08:06:10;11.38;99.99
70336;SHT31;57756;47.408;18.940;2024-02-26T08:08:41;11.39;99.99
70336;SHT31;57756;47.408;18.940;2024-02-26T08:11:15;11.38;99.99
70336;SHT31;57756;47.408;18.940;2024-02-26T08:13:46;11.42;99.99
70336;SHT31;57756;47.408;18.940;2024-02-26T08:16:18;11.46;99.99
70336;SHT31;57756;47.408;18.940;2024-02-26T08:18:51;11.38;99.99
70336;SHT31;57756;47.408;18.940;2024-02-26T08:21:24;11.39;99.99
70336;SHT31;57756;47.408;18.940;2024-02-26T08:23:56;11.41;99.99
70336;SHT31;57756;47.408;18.940;2024-02-26T08:26:30;11.41;99.99
70336;SHT31;57756;47.408;18.940;2024-02-26T08:29:03;11.46;99.99
70336;SHT31;57756;47.408;18.940;2024-02-26T08:31:34;11.36;99.99
70336;SHT31;57756;47.408;18.940;2024-02-26T08:34:06;11.45;99.99
70336;SHT31;57756;47.408;18.940;2024-02-26T08:36:37;11.36;99.99
70336;SHT31;57756;47.408;18.940;2024-02-26T08:39:10;11.32;99.99
70336;SHT31;57756;47.408;18.940;2024-02-26T08:41:42;11.41;99.99
70336;SHT31;57756;47.408;18.940;2024-02-26T08:44:14;11.44;99.99
70336;SHT31;57756;47.408;18.940;2024-02-26T08:46:47;11.44;99.99
70336;SHT31;57756;47.408;18.940;2024-02-26T08:49:19;11.42;99.99
70336;SHT31;57756;47.408;18.940;2024-02-26T08:51:50;11.41;99.99
70336;SHT31;57756;47.408;18.940;2024-02-26T08:54:17;11.35;99.99
70336;SHT31;57756;47.408;18.940;2024-02-26T08:56:48;11.38;99.99
70336;SHT31;57756;47.408;18.940;2024-02-26T08:59:19;11.35;99.99
70336;SHT31;57756;47.408;18.940;2024-02-26T09:01:54;11.28;99.99
70336;SHT31;57756;47.408;18.940;2024-02-26T09:04:23;11.38;99.99
70336;SHT31;57756;47.408;18.940;2024-02-26T09:06:57;11.35;99.99
70336;SHT31;57756;47.408;18.940;2024-02-26T09:09:28;11.35;99.99
70336;SHT31;57756;47.408;18.940;2024-02-26T09:12:00;11.34;99.99
70336;SHT31;57756;47.408;18.940;2024-02-26T09:14:31;11.32;99.99
70336;SHT31;57756;47.408;18.940;2024-02-26T09:17:02;11.38;99.99
70336;SHT31;57756;47.408;18.940;2024-02-26T09:19:34;11.32;99.99
70336;SHT31;57756;47.408;18.940;2024-02-26T09:22:06;11.45;99.99
70336;SHT31;57756;47.408;18.940;2024-02-26T09:24:39;11.39;99.99
70336;SHT31;57756;47.408;18.940;2024-02-26T09:27:10;11.38;99.99
70336;SHT31;57756;47.408;18.940;2024-02-26T09:29:42;11.42;99.99
70336;SHT31;57756;47.408;18.940;2024-02-26T09:32:09;11.45;99.99
70336;SHT31;57756;47.408;18.940;2024-02-26T09:34:44;11.36;99.99
70336;SHT31;57756;47.408;18.940;2024-02-26T09:37:16;11.44;99.99
70336;SHT31;57756;47.408;18.940;2024-02-26T09:39:49;11.39;99.99
70336;SHT31;57756;47.408;18.940;2024-02-26T09:42:24;11.51;99.99
70336;SHT31;57756;47.408;18.940;2024-02-26T09:44:57;11.50;99.99
70336;SHT31;57756;47.408;18.940;2024-02-26T09:47:33;11.65;99.77
70336;SHT31;57756;47.408;18.940;2024-02-26T09:50:07;11.68;99.99
70336;SHT31;57756;47.408;18.940;2024-02-26T09:52:44;11.63;99.99
70336;SHT31;57756;47.408;18.940;2024-02-26T09:55:15;11.65;99.90
70336;SHT31;57756;47.408;18.940;2024-02-26T09:57:51;11.65;99.95
70336;SHT31;57756;47.408;18.940;2024-02-26T10:00:25;11.71;99.84
70336;SHT31;57756;47.408;18.940;2024-02-26T10:03:02;11.79;99.99
70336;SHT31;57756;47.408;18.940;2024-02-26T10:05:37;11.90;99.97
70336;SHT31;57756;47.408;18.940;2024-02-26T10:08:12;11.87;99.99
70336;SHT31;57756;47.408;18.940;2024-02-26T10:10:44;12.00;99.79
70336;SHT31;57756;47.408;18.940;2024-02-26T10:13:16;12.17;99.04
70336;SHT31;57756;47.408;18.940;2024-02-26T10:15:50;12.14;98.21
70336;SHT31;57756;47.408;18.940;2024-02-26T10:18:24;12.34;98.22
70336;SHT31;57756;47.408;18.940;2024-02-26T10:21:05;12.57;97.82
70336;SHT31;57756;47.408;18.940;2024-02-26T10:23:36;12.81;97.43
70336;SHT31;57756;47.408;18.940;2024-02-26T10:26:09;13.02;96.67
70336;SHT31;57756;47.408;18.940;2024-02-26T10:28:45;13.05;95.42
70336;SHT31;57756;47.408;18.940;2024-02-26T10:31:18;13.00;94.39
70336;SHT31;57756;47.408;18.940;2024-02-26T10:33:49;13.14;94.93
70336;SHT31;57756;47.408;18.940;2024-02-26T10:36:24;13.27;95.11
70336;SHT31;57756;47.408;18.940;2024-02-26T10:38:56;13.28;94.38
70336;SHT31;57756;47.408;18.940;2024-02-26T10:41:28;13.34;93.93
70336;SHT31;57756;47.408;18.940;2024-02-26T10:43:59;13.42;94.01
70336;SHT31;57756;47.408;18.940;2024-02-26T10:46:33;13.57;95.52
70336;SHT31;57756;47.408;18.940;2024-02-26T10:49:14;13.72;94.36
70336;SHT31;57756;47.408;18.940;2024-02-26T10:51:52;13.72;93.46
70336;SHT31;57756;47.408;18.940;2024-02-26T10:54:24;13.94;93.37
70336;SHT31;57756;47.408;18.940;2024-02-26T10:56:59;13.81;92.42
70336;SHT31;57756;47.408;18.940;2024-02-26T10:59:34;13.83;92.56
70336;SHT31;57756;47.408;18.940;2024-02-26T11:02:07;13.94;92.77
70336;SHT31;57756;47.408;18.940;2024-02-26T11:04:39;14.02;92.60
70336;SHT31;57756;47.408;18.940;2024-02-26T11:07:11;14.20;92.58
70336;SHT31;57756;47.408;18.940;2024-02-26T11:09:42;14.15;92.79
70336;SHT31;57756;47.408;18.940;2024-02-26T11:12:15;14.22;92.05
70336;SHT31;57756;47.408;18.940;2024-02-26T11:14:49;14.41;90.17
70336;SHT31;57756;47.408;18.940;2024-02-26T11:17:29;14.36;91.29
70336;SHT31;57756;47.408;18.940;2024-02-26T11:20:03;14.48;90.87
70336;SHT31;57756;47.408;18.940;2024-02-26T11:22:34;14.66;91.23
70336;SHT31;57756;47.408;18.940;2024-02-26T11:25:05;14.59;89.27
70336;SHT31;57756;47.408;18.940;2024-02-26T11:27:43;14.41;90.45
70336;SHT31;57756;47.408;18.940;2024-02-26T11:30:16;14.46;89.64
70336;SHT31;57756;47.408;18.940;2024-02-26T11:32:49;14.46;89.22
70336;SHT31;57756;47.408;18.940;2024-02-26T11:35:22;14.51;89.88
70336;SHT31;57756;47.408;18.940;2024-02-26T11:38:00;14.48;90.25
70336;SHT31;57756;47.408;18.940;2024-02-26T11:40:37;14.50;91.22
70336;SHT31;57756;47.408;18.940;2024-02-26T11:43:12;14.78;89.70
70336;SHT31;57756;47.408;18.940;2024-02-26T11:45:49;14.89;90.38
70336;SHT31;57756;47.408;18.940;2024-02-26T11:48:24;15.04;90.44
70336;SHT31;57756;47.408;18.940;2024-02-26T11:50:57;15.14;88.07
70336;SHT31;57756;47.408;18.940;2024-02-26T11:53:35;15.18;88.10
70336;SHT31;57756;47.408;18.940;2024-02-26T11:56:27;14.89;88.23
70336;SHT31;57756;47.408;18.940;2024-02-26T11:59:04;15.04;87.84
70336;SHT31;57756;47.408;18.940;2024-02-26T12:01:48;14.99;88.65
70336;SHT31;57756;47.408;18.940;2024-02-26T12:04:16;15.04;87.67
70336;SHT31;57756;47.408;18.940;2024-02-26T12:06:56;14.98;88.19
70336;SHT31;57756;47.408;18.940;2024-02-26T12:09:39;14.98;89.70
70336;SHT31;57756;47.408;18.940;2024-02-26T12:12:17;14.85;87.78
70336;SHT31;57756;47.408;18.940;2024-02-26T12:14:57;14.85;88.73
70336;SHT31;57756;47.408;18.940;2024-02-26T12:17:28;14.83;88.58
70336;SHT31;57756;47.408;18.940;2024-02-26T12:20:12;14.87;89.88
70336;SHT31;57756;47.408;18.940;2024-02-26T12:22:50;14.78;88.91
70336;SHT31;57756;47.408;18.940;2024-02-26T12:25:31;14.96;88.71
70336;SHT31;57756;47.408;18.940;2024-02-26T12:28:02;15.12;88.55
70336;SHT31;57756;47.408;18.940;2024-02-26T12:30:35;14.98;89.41
70336;SHT31;57756;47.408;18.940;2024-02-26T12:33:08;15.16;87.91
70336;SHT31;57756;47.408;18.940;2024-02-26T12:35:41;15.29;88.20
70336;SHT31;57756;47.408;18.940;2024-02-26T12:38:18;15.31;89.07
70336;SHT31;57756;47.408;18.940;2024-02-26T12:40:49;15.40;87.08
70336;SHT31;57756;47.408;18.940;2024-02-26T12:43:24;15.28;87.32
70336;SHT31;57756;47.408;18.940;2024-02-26T12:45:56;15.32;87.62
70336;SHT31;57756;47.408;18.940;2024-02-26T12:48:27;15.43;86.96
70336;SHT31;57756;47.408;18.940;2024-02-26T12:50:58;15.49;87.09
70336;SHT31;57756;47.408;18.940;2024-02-26T12:53:29;15.39;87.53
70336;SHT31;57756;47.408;18.940;2024-02-26T12:56:02;15.43;88.40
70336;SHT31;57756;47.408;18.940;2024-02-26T12:58:33;15.46;86.76
70336;SHT31;57756;47.408;18.940;2024-02-26T13:01:10;15.29;87.03
70336;SHT31;57756;47.408;18.940;2024-02-26T13:03:45;15.49;87.69
70336;SHT31;57756;47.408;18.940;2024-02-26T13:06:16;15.74;87.91
70336;SHT31;57756;47.408;18.940;2024-02-26T13:08:49;15.77;86.01
70336;SHT31;57756;47.408;18.940;2024-02-26T13:11:20;15.76;85.13
70336;SHT31;57756;47.408;18.940;2024-02-26T13:13:53;15.77;85.74
70336;SHT31;57756;47.408;18.940;2024-02-26T13:16:26;15.88;84.24
70336;SHT31;57756;47.408;18.940;2024-02-26T13:19:07;15.91;84.81
70336;SHT31;57756;47.408;18.940;2024-02-26T13:21:38;15.98;83.71
70336;SHT31;57756;47.408;18.940;2024-02-26T13:24:12;15.96;84.31
70336;SHT31;57756;47.408;18.940;2024-02-26T13:26:44;15.90;83.72
70336;SHT31;57756;47.408;18.940;2024-02-26T13:29:26;15.74;84.48
70336;SHT31;57756;47.408;18.940;2024-02-26T13:32:00;15.66;84.03
70336;SHT31;57756;47.408;18.940;2024-02-26T13:34:33;15.74;82.15
70336;SHT31;57756;47.408;18.940;2024-02-26T13:37:06;15.76;80.55
70336;SHT31;57756;47.408;18.940;2024-02-26T13:39:39;15.70;79.99
70336;SHT31;57756;47.408;18.940;2024-02-26T13:42:09;15.66;80.94
70336;SHT31;57756;47.408;18.940;2024-02-26T13:44:39;15.47;81.26
70336;SHT31;57756;47.408;18.940;2024-02-26T13:47:12;15.49;82.49
70336;SHT31;57756;47.408;18.940;2024-02-26T13:49:47;15.39;81.88
70336;SHT31;57756;47.408;18.940;2024-02-26T13:52:20;15.32;81.05
70336;SHT31;57756;47.408;18.940;2024-02-26T13:54:53;15.14;82.26
70336;SHT31;57756;47.408;18.940;2024-02-26T13:57:26;15.08;82.81
70336;SHT31;57756;47.408;18.940;2024-02-26T13:59:59;15.02;82.62
70336;SHT31;57756;47.408;18.940;2024-02-26T14:02:33;14.98;83.23
70336;SHT31;57756;47.408;18.940;2024-02-26T14:05:06;14.85;83.95
70336;SHT31;57756;47.408;18.940;2024-02-26T14:07:37;14.99;82.76
70336;SHT31;57756;47.408;18.940;2024-02-26T14:10:11;15.06;83.49
70336;SHT31;57756;47.408;18.940;2024-02-26T14:12:42;15.21;82.78
70336;SHT31;57756;47.408;18.940;2024-02-26T14:15:15;15.11;83.61
70336;SHT31;57756;47.408;18.940;2024-02-26T14:17:46;15.18;83.16
70336;SHT31;57756;47.408;18.940;2024-02-26T14:20:26;15.11;83.77
70336;SHT31;57756;47.408;18.940;2024-02-26T14:22:58;15.25;83.31
70336;SHT31;57756;47.408;18.940;2024-02-26T14:25:32;15.28;84.48
70336;SHT31;57756;47.408;18.940;2024-02-26T14:28:03;15.19;86.31
70336;SHT31;57756;47.408;18.940;2024-02-26T14:30:34;15.12;86.97
70336;SHT31;57756;47.408;18.940;2024-02-26T14:33:05;15.21;87.05
70336;SHT31;57756;47.408;18.940;2024-02-26T14:35:39;15.18;86.07
70336;SHT31;57756;47.408;18.940;2024-02-26T14:38:11;15.11;86.22
70336;SHT31;57756;47.408;18.940;2024-02-26T14:40:45;14.96;86.95
70336;SHT31;57756;47.408;18.940;2024-02-26T14:43:16;14.81;87.70
70336;SHT31;57756;47.408;18.940;2024-02-26T14:45:48;14.87;87.07
70336;SHT31;57756;47.408;18.940;2024-02-26T14:48:21;14.78;87.55
70336;SHT31;57756;47.408;18.940;2024-02-26T14:50:52;14.78;86.79
70336;SHT31;57756;47.408;18.940;2024-02-26T14:53:25;14.77;86.77
70336;SHT31;57756;47.408;18.940;2024-02-26T14:55:58;14.77;86.65
70336;SHT31;57756;47.408;18.940;2024-02-26T14:58:31;14.73;87.11
70336;SHT31;57756;47.408;18.940;2024-02-26T15:01:05;14.67;86.75
70336;SHT31;57756;47.408;18.940;2024-02-26T15:03:37;14.64;87.03
70336;SHT31;57756;47.408;18.940;2024-02-26T15:06:09;14.60;87.37
70336;SHT31;57756;47.408;18.940;2024-02-26T15:08:41;14.51;87.29
70336;SHT31;57756;47.408;18.940;2024-02-26T15:11:12;14.43;86.95
70336;SHT31;57756;47.408;18.940;2024-02-26T15:13:43;14.44;86.55
70336;SHT31;57756;47.408;18.940;2024-02-26T15:16:21;14.37;87.33
70336;SHT31;57756;47.408;18.940;2024-02-26T15:18:53;14.23;87.56
70336;SHT31;57756;47.408;18.940;2024-02-26T15:21:27;14.22;87.12
70336;SHT31;57756;47.408;18.940;2024-02-26T15:24:00;14.08;88.10
70336;SHT31;57756;47.408;18.940;2024-02-26T15:26:31;14.04;87.83
70336;SHT31;57756;47.408;18.940;2024-02-26T15:29:04;14.06;87.62
70336;SHT31;57756;47.408;18.940;2024-02-26T15:31:38;14.02;87.81
70336;SHT31;57756;47.408;18.940;2024-02-26T15:34:09;13.91;88.16
70336;SHT31;57756;47.408;18.940;2024-02-26T15:36:43;13.79;88.68
70336;SHT31;57756;47.408;18.940;2024-02-26T15:39:14;13.78;88.74
70336;SHT31;57756;47.408;18.940;2024-02-26T15:41:46;13.64;89.47
70336;SHT31;57756;47.408;18.940;2024-02-26T15:44:17;13.57;89.34
70336;SHT31;57756;47.408;18.940;2024-02-26T15:46:48;13.42;89.68
70336;SHT31;57756;47.408;18.940;2024-02-26T15:49:19;13.40;90.00
70336;SHT31;57756;47.408;18.940;2024-02-26T15:51:50;13.24;90.80
70336;SHT31;57756;47.408;18.940;2024-02-26T15:54:21;13.13;91.13
70336;SHT31;57756;47.408;18.940;2024-02-26T15:56:48;12.99;92.21